Time;durP1;ratioP1;P1;durP2;ratioP2;P2;SDS_P1;SDS_P2;PMS_P1;PMS_P2;Temp;Humidity;BMP_temperature;BMP_pressure;BME280_temperature;BME280_humidity;BME280_pressure;Samples;Min_cycle;Max_cycle;Signal;HPM_P1;HPM_P2
2022/10/28 00:01:01;;;;;;;7.13;4.10;;;;;;;14.61;61.62;95888.50;4895040;29;20192;-77
2022/10/28 00:03:28;;;;;;;6.10;4.27;;;;;;;14.59;61.52;95886.06;4894555;29;20216;-78
2022/10/28 00:06:01;;;;;;;5.93;3.83;;;;;;;14.58;61.51;95886.19;4895098;29;20227;-78
2022/10/28 00:08:28;;;;;;;5.17;4.03;;;;;;;14.46;61.74;95870.00;4895134;29;20223;-79
2022/10/28 00:11:07;;;;;;;6.17;4.13;;;;;;;14.55;61.93;95882.97;4895300;29;20203;-78
2022/10/28 00:13:34;;;;;;;6.60;4.00;;;;;;;14.50;61.86;95876.56;4876260;29;20200;-77
2022/10/28 00:16:10;;;;;;;6.13;4.77;;;;;;;14.45;62.05;95866.63;4894289;29;20235;-78
2022/10/28 00:18:37;;;;;;;4.73;3.57;;;;;;;14.25;61.81;95845.19;4894862;29;20211;-77
2022/10/28 00:21:08;;;;;;;6.67;4.33;;;;;;;14.49;61.88;95877.50;4895133;29;20229;-78
2022/10/28 00:23:35;;;;;;;7.47;4.70;;;;;;;14.41;62.12;95867.03;4894523;29;20196;-82
2022/10/28 00:26:13;;;;;;;6.57;3.83;;;;;;;14.46;62.30;95872.59;4896585;29;20231;-82
2022/10/28 00:28:44;;;;;;;5.07;3.80;;;;;;;14.43;62.17;95883.16;4899629;29;20286;-81
2022/10/28 00:31:13;;;;;;;6.73;4.20;;;;;;;14.30;62.26;95861.06;4895920;29;20694;-78
2022/10/28 00:33:41;;;;;;;7.70;4.00;;;;;;;14.41;62.10;95874.75;4894759;29;20227;-78
2022/10/28 00:36:13;;;;;;;5.57;3.90;;;;;;;14.39;62.22;95869.75;4895034;29;20211;-78
2022/10/28 00:38:41;;;;;;;5.20;3.93;;;;;;;14.38;62.42;95870.69;4894853;29;20188;-78
2022/10/28 00:41:10;;;;;;;6.03;3.63;;;;;;;14.11;62.37;95834.44;4898886;29;20230;-80
2022/10/28 00:43:41;;;;;;;5.03;4.10;;;;;;;14.33;62.67;95870.25;4913242;29;20202;-77
2022/10/28 00:46:17;;;;;;;6.37;4.03;;;;;;;14.30;62.65;95860.25;4913546;29;20722;-78
2022/10/28 00:48:46;;;;;;;4.43;4.00;;;;;;;14.30;62.70;95867.97;4913541;29;20606;-77
2022/10/28 00:51:14;;;;;;;5.00;3.73;;;;;;;14.30;62.68;95876.50;4913118;29;20200;-78
2022/10/28 00:53:42;;;;;;;4.57;3.97;;;;;;;14.02;62.70;95831.72;4913169;29;20250;-78
2022/10/28 00:56:12;;;;;;;6.70;4.70;;;;;;;14.27;62.70;95875.94;4913433;29;20204;-78
2022/10/28 00:58:39;;;;;;;4.37;3.50;;;;;;;14.23;62.80;95872.00;4913368;29;20191;-81
2022/10/28 01:01:06;;;;;;;4.17;3.77;;;;;;;14.24;62.96;95873.63;4913826;29;20195;-81
2022/10/28 01:03:33;;;;;;;5.90;3.77;;;;;;;14.23;62.78;95874.56;4913118;29;20687;-81
2022/10/28 01:06:01;;;;;;;7.43;3.73;;;;;;;14.17;62.89;95864.81;4915585;29;20204;-79
2022/10/28 01:08:28;;;;;;;6.83;4.00;;;;;;;14.12;62.90;95864.38;4915778;29;20691;-79
2022/10/28 01:11:21;;;;;;;4.83;3.90;;;;;;;14.16;63.21;95869.16;4919420;29;20592;-78
2022/10/28 01:14:00;;;;;;;4.60;3.97;;;;;;;14.14;63.08;95867.63;4912449;29;20203;-80
2022/10/28 01:16:38;;;;;;;6.23;4.20;;;;;;;14.13;63.20;95869.41;4900276;29;20652;-78
2022/10/28 01:19:29;;;;;;;5.40;4.20;;;;;;;14.05;63.19;95864.91;4898180;29;20197;-81
2022/10/28 01:22:10;;;;;;;4.57;3.70;;;;;;;14.08;63.36;95866.41;4894280;29;20200;-81
2022/10/28 01:25:07;;;;;;;5.57;4.23;;;;;;;14.06;63.33;95866.53;4897629;29;20562;-79
2022/10/28 01:28:06;;;;;;;5.20;4.17;;;;;;;14.04;63.47;95860.72;4839891;29;20633;-80
2022/10/28 01:30:44;;;;;;;6.83;4.33;;;;;;;14.01;63.49;95866.09;4839723;29;20209;-78
2022/10/28 01:33:21;;;;;;;4.27;3.83;;;;;;;14.00;63.60;95871.38;4839766;29;20658;-80
2022/10/28 01:35:55;;;;;;;4.73;3.90;;;;;;;13.94;63.59;95861.59;4839855;29;20194;-81
2022/10/28 01:38:30;;;;;;;4.83;4.13;;;;;;;13.98;63.60;95873.25;4836191;29;20279;-79
2022/10/28 01:41:07;;;;;;;7.50;3.77;;;;;;;13.97;63.70;95875.03;4834709;29;20221;-81
2022/10/28 01:43:41;;;;;;;6.17;4.10;;;;;;;13.86;63.75;95853.72;4839250;29;20290;-80
2022/10/28 01:46:14;;;;;;;4.43;4.03;;;;;;;13.94;63.77;95877.03;4839843;29;20198;-80
2022/10/28 01:48:48;;;;;;;5.17;3.57;;;;;;;13.93;63.96;95877.97;4838382;29;20205;-80
2022/10/28 01:51:19;;;;;;;6.13;4.27;;;;;;;13.77;63.75;95857.88;4829406;29;20218;-80
2022/10/28 01:53:51;;;;;;;5.50;3.73;;;;;;;13.91;63.81;95874.72;4821474;29;20210;-79
2022/10/28 01:56:24;;;;;;;10.57;3.70;;;;;;;13.88;63.83;95873.22;4821910;29;20698;-82
2022/10/28 01:58:53;;;;;;;6.90;3.93;;;;;;;13.84;63.91;95873.59;4820763;29;20199;-81
2022/10/28 02:01:22;;;;;;;4.97;4.20;;;;;;;13.87;63.91;95884.47;4827520;29;20187;-79
2022/10/28 02:03:52;;;;;;;5.13;4.07;;;;;;;13.86;64.13;95877.69;4849651;29;20597;-81
2022/10/28 02:06:21;;;;;;;6.13;3.60;;;;;;;13.84;63.87;95877.00;4897653;29;20216;-78
2022/10/28 02:09:08;;;;;;;4.70;3.47;;;;;;;13.83;64.17;95880.50;4897755;29;20204;-79
2022/10/28 02:11:52;;;;;;;4.63;3.40;;;;;;;13.82;64.15;95886.59;4899648;29;20770;-81
2022/10/28 02:14:33;;;;;;;4.23;3.47;;;;;;;13.79;64.31;95877.38;4916003;29;20556;-79
2022/10/28 02:17:10;;;;;;;5.47;3.30;;;;;;;13.78;64.13;95872.38;4915783;29;20196;-79
2022/10/28 02:19:47;;;;;;;5.03;3.33;;;;;;;13.76;64.20;95871.66;4914819;29;20195;-79
2022/10/28 02:22:20;;;;;;;5.70;4.07;;;;;;;13.72;64.28;95870.28;4897573;29;20198;-81
2022/10/28 02:24:54;;;;;;;4.70;3.40;;;;;;;13.70;64.48;95870.44;4878283;29;20629;-79
2022/10/28 02:27:32;;;;;;;6.80;3.40;;;;;;;13.64;64.28;95864.97;4884215;29;20691;-79
2022/10/28 02:30:05;;;;;;;4.07;3.40;;;;;;;13.65;64.30;95861.50;4897167;29;20203;-79
2022/10/28 02:32:37;;;;;;;3.90;3.50;;;;;;;13.53;64.43;95853.84;4897598;29;20184;-79
2022/10/28 02:35:10;;;;;;;4.80;3.83;;;;;;;13.65;64.44;95867.44;4902848;29;20294;-78
2022/10/28 02:37:41;;;;;;;5.67;3.53;;;;;;;13.66;64.40;95875.97;4915374;29;20199;-79
2022/10/28 02:40:14;;;;;;;10.30;3.80;;;;;;;13.65;64.38;95880.28;4915163;29;20283;-79
2022/10/28 02:42:47;;;;;;;4.47;3.50;;;;;;;13.62;64.48;95885.69;4913552;29;20673;-80
2022/10/28 02:45:17;;;;;;;3.83;3.47;;;;;;;13.61;64.73;95888.38;4908563;29;20199;-78
2022/10/28 02:47:48;;;;;;;6.50;3.87;;;;;;;13.59;64.70;95887.69;4915170;29;20623;-78
2022/10/28 02:50:21;;;;;;;8.40;3.87;;;;;;;13.34;64.51;95845.19;4915478;29;20188;-78
2022/10/28 02:52:51;;;;;;;5.27;3.90;;;;;;;13.55;64.70;95885.34;4915258;29;20195;-78
2022/10/28 02:55:20;;;;;;;3.77;3.40;;;;;;;13.53;64.58;95884.69;4913400;29;20576;-78
2022/10/28 02:57:48;;;;;;;3.53;3.03;;;;;;;13.53;64.82;95882.13;4908289;29;20197;-78
2022/10/28 03:00:18;;;;;;;4.13;3.33;;;;;;;13.50;64.64;95884.13;4896384;29;20528;-78
2022/10/28 03:02:45;;;;;;;5.60;3.10;;;;;;;13.49;65.02;95888.44;4896115;29;20229;-78
2022/10/28 03:05:13;;;;;;;3.43;3.13;;;;;;;13.48;64.94;95883.44;4896966;29;20196;-79
2022/10/28 03:07:41;;;;;;;7.00;3.40;;;;;;;13.33;64.95;95864.13;4877301;29;20595;-79
2022/10/28 03:10:09;;;;;;;5.07;3.73;;;;;;;13.46;64.85;95880.16;4877684;29;20191;-80
2022/10/28 03:12:36;;;;;;;3.93;3.53;;;;;;;13.43;64.88;95886.38;4877358;29;20581;-80
2022/10/28 03:15:03;;;;;;;5.67;3.50;;;;;;;13.41;64.83;95874.59;4882126;29;20192;-82
2022/10/28 03:17:30;;;;;;;4.67;3.93;;;;;;;13.38;64.99;95869.69;4895841;29;20581;-82
2022/10/28 03:19:57;;;;;;;5.60;3.67;;;;;;;13.39;65.05;95879.88;4914588;29;20199;-82
2022/10/28 03:22:24;;;;;;;3.77;3.27;;;;;;;13.38;65.12;95890.25;4915128;29;20276;-82
2022/10/28 03:24:52;;;;;;;4.20;3.33;;;;;;;13.37;65.06;95879.16;4914995;29;20203;-82
2022/10/28 03:27:19;;;;;;;7.53;3.80;;;;;;;13.36;65.07;95887.00;4905773;29;20216;-83
2022/10/28 03:29:45;;;;;;;4.97;3.80;;;;;;;13.35;65.20;95888.75;4914525;29;20203;-82
2022/10/28 03:32:12;;;;;;;7.37;3.97;;;;;;;13.33;65.24;95885.50;4914377;29;20198;-83
2022/10/28 03:34:39;;;;;;;4.57;3.80;;;;;;;13.32;65.07;95888.19;4913880;29;20212;-81
2022/10/28 03:37:09;;;;;;;4.73;3.50;;;;;;;13.30;65.36;95881.44;4903524;29;20185;-80
2022/10/28 03:39:35;;;;;;;4.17;3.67;;;;;;;13.28;65.30;95888.44;4905059;29;20194;-80
2022/10/28 03:42:06;;;;;;;5.93;3.97;;;;;;;13.19;65.36;95871.19;4919302;29;20195;-79
2022/10/28 03:44:35;;;;;;;5.20;3.47;;;;;;;13.26;65.22;95886.94;4921373;29;20207;-79
2022/10/28 03:47:03;;;;;;;8.30;3.77;;;;;;;13.22;65.29;95888.09;4910524;29;20308;-78
2022/10/28 03:49:30;;;;;;;4.97;3.70;;;;;;;13.22;65.49;95890.66;4911670;29;20219;-78
2022/10/28 03:51:57;;;;;;;7.30;3.87;;;;;;;13.18;65.48;95891.84;4914677;29;20191;-81
2022/10/28 03:54:23;;;;;;;5.67;3.90;;;;;;;12.97;65.43;95854.13;4917283;29;20191;-83
2022/10/28 03:56:50;;;;;;;6.17;3.73;;;;;;;13.15;65.46;95876.69;4906947;29;20203;-82
2022/10/28 03:59:18;;;;;;;5.33;3.63;;;;;;;13.18;65.46;95891.84;4905001;29;20204;-83
2022/10/28 04:01:45;;;;;;;4.70;3.73;;;;;;;13.15;65.64;95887.78;4914730;29;20196;-81
2022/10/28 04:04:12;;;;;;;4.50;4.10;;;;;;;13.15;65.61;95889.53;4919661;29;20206;-79
2022/10/28 04:06:39;;;;;;;6.10;4.10;;;;;;;13.14;65.73;95893.03;4908379;29;20200;-79
2022/10/28 04:09:05;;;;;;;8.30;3.90;;;;;;;13.12;65.54;95893.16;4905014;29;20708;-81
2022/10/28 04:11:32;;;;;;;4.00;3.57;;;;;;;12.97;65.70;95871.28;4896758;29;20613;-80
2022/10/28 04:13:59;;;;;;;5.43;4.07;;;;;;;13.10;65.80;95897.59;4895970;29;20193;-81
2022/10/28 04:16:28;;;;;;;5.27;4.47;;;;;;;13.05;65.85;95886.91;4909439;29;20192;-80
2022/10/28 04:18:55;;;;;;;7.93;3.70;;;;;;;13.05;65.77;95892.03;4912300;29;20211;-79
2022/10/28 04:21:23;;;;;;;9.37;4.50;;;;;;;13.06;65.78;95897.03;4906900;29;20644;-80
2022/10/28 04:23:50;;;;;;;4.50;4.03;;;;;;;13.06;65.78;95904.75;4912553;29;20188;-79
2022/10/28 04:26:17;;;;;;;8.53;4.27;;;;;;;13.00;65.83;95892.41;4895940;29;20188;-81
2022/10/28 04:28:44;;;;;;;4.73;3.90;;;;;;;13.02;65.73;95892.28;4897513;29;20220;-80
2022/10/28 04:31:11;;;;;;;6.83;4.03;;;;;;;12.96;65.82;95890.19;4915402;29;20196;-79
2022/10/28 04:33:39;;;;;;;5.93;3.93;;;;;;;13.00;66.02;95902.69;4911323;29;20500;-81
2022/10/28 04:36:07;;;;;;;10.23;4.90;;;;;;;13.01;65.89;95903.47;4904667;29;20192;-81
2022/10/28 04:38:33;;;;;;;5.33;4.37;;;;;;;12.74;65.95;95861.09;4914153;29;20195;-78
2022/10/28 04:41:00;;;;;;;7.83;4.27;;;;;;;12.97;66.07;95902.91;4926178;29;20236;-79
2022/10/28 04:43:27;;;;;;;8.43;4.53;;;;;;;12.98;65.97;95898.59;4903834;29;20589;-79
2022/10/28 04:45:54;;;;;;;9.10;4.37;;;;;;;12.97;65.91;95894.41;4909131;29;20197;-81
2022/10/28 04:48:21;;;;;;;6.57;4.30;;;;;;;12.94;66.04;95892.88;4913340;29;20569;-82
2022/10/28 04:50:50;;;;;;;8.77;4.63;;;;;;;12.86;66.14;95874.69;4911045;29;20578;-80
2022/10/28 04:53:19;;;;;;;13.83;4.63;;;;;;;12.93;66.08;95887.88;4917238;29;20197;-81
2022/10/28 04:55:45;;;;;;;7.20;4.80;;;;;;;12.93;66.12;95886.13;4924999;29;20196;-80
2022/10/28 04:58:12;;;;;;;9.30;5.20;;;;;;;12.92;66.16;95897.31;4930292;29;20200;-78
2022/10/28 05:00:39;;;;;;;8.60;4.90;;;;;;;12.93;65.95;95895.56;4921680;29;20597;-82
2022/10/28 05:03:06;;;;;;;11.90;4.93;;;;;;;12.93;66.05;95898.16;4914585;29;20184;-80
2022/10/28 05:05:33;;;;;;;6.37;4.43;;;;;;;12.92;66.06;95905.03;4899663;29;20195;-82
2022/10/28 05:08:01;;;;;;;11.70;5.07;;;;;;;12.93;66.18;95904.09;4899079;29;20296;-82
2022/10/28 05:10:29;;;;;;;9.57;5.27;;;;;;;12.94;66.21;95898.00;4899161;29;20196;-87
2022/10/28 05:12:56;;;;;;;10.77;4.37;;;;;;;13.34;100.00;95891.44;4899353;29;20564;-87
2022/10/28 05:15:23;;;;;;;12.80;4.83;;;;;;;13.92;100.00;95902.06;4899055;29;20207;-83
2022/10/28 05:17:50;;;;;;;8.37;5.30;;;;;;;14.44;100.00;95897.66;4898655;29;20200;-84
2022/10/28 05:20:18;;;;;;;9.33;4.80;;;;;;;14.63;100.00;95859.09;4898606;29;20645;-84
2022/10/28 05:22:49;;;;;;;14.80;4.77;;;;;;;15.19;100.00;95884.19;4898284;29;20211;-86
2022/10/28 05:25:17;;;;;;;8.23;4.50;;;;;;;15.67;100.00;95909.16;4909099;29;20289;-83
2022/10/28 05:27:44;;;;;;;8.97;4.83;;;;;;;16.00;100.00;95907.00;4916839;29;20940;-81
2022/10/28 05:30:13;;;;;;;20.27;5.13;;;;;;;16.28;100.00;95908.69;4892549;29;20209;-81
2022/10/28 05:32:39;;;;;;;17.27;11.87;;;;;;;16.55;100.00;95917.38;4876714;29;20196;-79
2022/10/28 05:35:07;;;;;;;19.30;9.83;;;;;;;16.80;100.00;95910.75;4877224;29;20703;-82
2022/10/28 05:37:34;;;;;;;21.57;12.27;;;;;;;17.05;100.00;95922.09;4912945;29;20222;-80
2022/10/28 05:40:01;;;;;;;17.70;8.97;;;;;;;17.04;100.00;95899.81;4915449;29;20547;-81
2022/10/28 05:42:29;;;;;;;18.97;8.93;;;;;;;16.98;97.52;95893.47;4903983;29;20204;-80
2022/10/28 05:44:58;;;;;;;19.30;9.50;;;;;;;17.08;92.32;95929.59;4896225;29;20207;-79
2022/10/28 05:47:25;;;;;;;16.60;10.90;;;;;;;17.02;89.04;95932.75;4902314;29;20204;-82
2022/10/28 05:49:52;;;;;;;26.03;13.27;;;;;;;16.94;86.32;95932.69;4914310;29;20208;-79
2022/10/28 05:52:19;;;;;;;26.27;12.13;;;;;;;16.80;84.22;95934.00;4910298;29;20188;-80
2022/10/28 05:54:45;;;;;;;25.27;11.23;;;;;;;16.56;82.36;95924.97;4907226;29;20210;-79
2022/10/28 05:57:12;;;;;;;18.50;10.10;;;;;;;16.53;81.01;95925.25;4893521;29;20192;-81
2022/10/28 05:59:40;;;;;;;19.47;11.20;;;;;;;16.44;79.89;95935.63;4904732;29;20247;-77
2022/10/28 06:02:13;;;;;;;20.13;10.60;;;;;;;16.39;78.98;95936.06;4890527;29;20219;-80
2022/10/28 06:04:40;;;;;;;18.53;9.67;;;;;;;16.33;78.14;95943.59;4892853;29;20282;-80
2022/10/28 06:07:07;;;;;;;25.70;10.13;;;;;;;16.23;76.96;95930.69;4893937;29;20743;-79
2022/10/28 06:09:34;;;;;;;23.43;9.70;;;;;;;16.35;75.86;95934.72;4910086;29;20216;-81
2022/10/28 06:12:01;;;;;;;19.43;9.40;;;;;;;16.39;75.57;95922.34;4897318;29;20204;-79
2022/10/28 06:14:28;;;;;;;16.40;9.67;;;;;;;16.88;77.07;95951.34;4907545;29;20207;-78
2022/10/28 06:16:56;;;;;;;13.27;9.20;;;;;;;17.27;78.57;95950.13;4904026;29;20205;-81
2022/10/28 06:19:23;;;;;;;15.33;8.90;;;;;;;17.64;79.45;95945.72;4902358;29;20207;-80
2022/10/28 06:21:50;;;;;;;16.77;8.20;;;;;;;18.16;79.38;95951.75;4913087;29;20200;-81
2022/10/28 06:24:17;;;;;;;12.40;8.40;;;;;;;18.69;79.39;95974.06;4910275;29;20200;-77
2022/10/28 06:26:44;;;;;;;13.30;8.07;;;;;;;19.21;78.98;95973.91;4902890;29;20207;-77
2022/10/28 06:29:11;;;;;;;14.13;7.70;;;;;;;19.78;78.24;95962.78;4907683;29;20243;-81
2022/10/28 06:31:39;;;;;;;15.33;8.43;;;;;;;20.41;77.16;95964.59;4904696;29;20259;-84
2022/10/28 06:34:08;;;;;;;14.83;8.23;;;;;;;20.89;75.54;95942.00;4905120;29;20219;-81
2022/10/28 06:36:36;;;;;;;13.03;7.33;;;;;;;21.72;72.82;95976.97;4915129;29;20204;-81
2022/10/28 06:39:03;;;;;;;13.97;7.53;;;;;;;22.22;70.07;95954.69;4916327;29;20200;-80
2022/10/28 06:41:30;;;;;;;13.60;6.70;;;;;;;22.97;67.41;95974.53;4912377;29;20236;-78
2022/10/28 06:43:57;;;;;;;10.52;6.47;;;;;;;23.51;65.14;95972.31;4904440;29;20215;-79
2022/10/28 06:46:24;;;;;;;13.45;7.03;;;;;;;24.13;62.79;95964.78;4909685;29;20195;-80
2022/10/28 06:48:56;;;;;;;14.15;6.68;;;;;;;24.63;60.27;95961.09;4904953;29;20727;-80
2022/10/28 06:51:24;;;;;;;12.27;6.00;;;;;;;25.24;58.18;95968.19;4902727;29;20203;-80
2022/10/28 06:53:52;;;;;;;12.75;6.03;;;;;;;25.71;56.57;95967.25;4893319;29;20207;-78
2022/10/28 06:56:19;;;;;;;8.38;5.57;;;;;;;26.20;54.43;95966.03;4896582;29;20278;-79
2022/10/28 06:58:50;;;;;;;10.38;5.38;;;;;;;26.66;53.31;95967.81;4904558;29;20588;-79
2022/10/28 07:01:18;;;;;;;8.65;5.68;;;;;;;27.05;51.49;95965.22;4895573;29;20295;-80
2022/10/28 07:03:45;;;;;;;10.35;5.25;;;;;;;27.41;50.51;95964.66;4909911;29;20200;-80
2022/10/28 07:06:11;;;;;;;13.90;5.82;;;;;;;27.79;49.50;95972.50;4904040;29;20192;-79
2022/10/28 07:08:40;;;;;;;10.23;4.85;;;;;;;28.13;48.16;95970.41;4897183;29;20212;-81
2022/10/28 07:11:06;;;;;;;11.68;5.55;;;;;;;28.36;47.30;95973.25;4908733;29;20193;-84
2022/10/28 07:13:33;;;;;;;7.70;4.88;;;;;;;28.70;46.00;95982.41;4903461;29;20192;-79
2022/10/28 07:16:00;;;;;;;9.40;4.65;;;;;;;28.96;45.28;95978.69;4907726;29;20200;-79
2022/10/28 07:18:29;;;;;;;8.63;4.95;;;;;;;29.05;44.72;95955.47;4911436;29;20199;-79
2022/10/28 07:20:58;;;;;;;7.57;4.97;;;;;;;29.42;44.08;95976.47;4909723;29;20258;-79
2022/10/28 07:23:25;;;;;;;7.18;4.80;;;;;;;29.62;43.36;95978.84;4909828;29;20191;-78
2022/10/28 07:25:54;;;;;;;5.07;4.18;;;;;;;29.76;42.70;95979.47;4906286;29;20226;-77
2022/10/28 07:28:22;;;;;;;7.55;4.70;;;;;;;29.97;42.21;95982.38;4909174;29;20231;-81
2022/10/28 07:30:49;;;;;;;7.40;4.82;;;;;;;30.06;41.51;95974.13;4905438;29;20218;-82
2022/10/28 07:33:16;;;;;;;6.93;5.22;;;;;;;30.21;41.12;95977.91;4912639;29;20230;-80
2022/10/28 07:35:43;;;;;;;9.65;5.53;;;;;;;30.31;40.86;95973.91;4906040;29;20200;-81
2022/10/28 07:38:13;;;;;;;5.93;4.57;;;;;;;30.37;40.41;95975.63;4903530;29;20204;-80
2022/10/28 07:40:39;;;;;;;5.90;4.97;;;;;;;30.36;40.08;95972.19;4905408;29;20223;-83
2022/10/28 07:43:08;;;;;;;7.15;4.97;;;;;;;30.41;39.92;95966.22;4907834;29;20204;-83
2022/10/28 07:45:35;;;;;;;6.85;4.70;;;;;;;30.48;39.56;95969.53;4900478;29;20192;-81
2022/10/28 07:48:02;;;;;;;12.70;5.28;;;;;;;30.53;39.40;95982.03;4905228;29;20200;-81
2022/10/28 07:50:29;;;;;;;6.82;5.68;;;;;;;30.46;39.68;95984.81;4904859;29;20197;-80
2022/10/28 07:52:56;;;;;;;8.27;5.05;;;;;;;30.29;39.93;95975.97;4895047;29;20210;-78
2022/10/28 07:55:22;;;;;;;11.57;5.05;;;;;;;29.98;40.29;95969.97;4885988;29;21009;-81
2022/10/28 07:57:49;;;;;;;9.13;4.97;;;;;;;29.58;40.56;95953.94;4895850;29;20213;-80
2022/10/28 08:00:18;;;;;;;11.15;5.30;;;;;;;29.29;40.42;95966.13;4902996;29;20563;-80
2022/10/28 08:02:45;;;;;;;10.88;5.57;;;;;;;29.01;40.32;95967.47;4892129;29;20212;-79
2022/10/28 08:05:12;;;;;;;9.75;5.32;;;;;;;28.66;40.66;95977.78;4898314;29;20192;-78
2022/10/28 08:07:38;;;;;;;10.48;6.47;;;;;;;28.29;40.46;95966.44;4901583;29;20196;-78
2022/10/28 08:10:06;;;;;;;11.15;6.25;;;;;;;27.94;40.91;95972.19;4902369;29;20216;-83
2022/10/28 08:12:33;;;;;;;11.77;7.22;;;;;;;27.43;40.93;95950.28;4907963;29;20196;-82
2022/10/28 08:15:01;;;;;;;12.90;6.32;;;;;;;27.22;40.75;95961.94;4904859;29;20246;-84
2022/10/28 08:17:29;;;;;;;8.85;6.07;;;;;;;26.94;41.04;95969.31;4912313;29;20199;-81
2022/10/28 08:19:56;;;;;;;15.73;6.93;;;;;;;26.70;40.91;95976.06;4901436;29;20216;-81
2022/10/28 08:22:23;;;;;;;16.45;7.22;;;;;;;26.44;41.21;95971.69;4897827;29;20200;-82
2022/10/28 08:24:50;;;;;;;16.00;7.45;;;;;;;26.16;41.59;95966.66;4894551;29;20315;-83
2022/10/28 08:27:17;;;;;;;12.52;6.75;;;;;;;25.99;41.76;95971.50;4889184;29;20200;-84
2022/10/28 08:29:44;;;;;;;12.05;6.47;;;;;;;25.78;41.50;95980.41;4899204;29;20216;-84
2022/10/28 08:32:10;;;;;;;9.15;6.50;;;;;;;25.52;41.65;95976.72;4898852;29;20211;-83
2022/10/28 08:34:38;;;;;;;11.23;6.90;;;;;;;25.32;41.82;95977.69;4911558;29;20200;-83
2022/10/28 08:37:05;;;;;;;14.43;7.25;;;;;;;25.11;42.55;95965.53;4906097;29;20207;-83
2022/10/28 08:39:32;;;;;;;13.52;7.13;;;;;;;24.92;42.22;95969.69;4906430;29;20184;-82
2022/10/28 08:42:09;;;;;;;10.30;6.93;;;;;;;24.60;42.43;95945.78;4901505;29;20204;-81
2022/10/28 08:45:03;;;;;;;14.40;7.18;;;;;;;24.53;42.86;95965.88;4896277;29;20212;-83
2022/10/28 08:47:42;;;;;;;12.40;6.63;;;;;;;24.34;42.63;95962.09;4815990;29;20347;-80
2022/10/28 08:50:17;;;;;;;12.70;7.03;;;;;;;24.17;43.20;95958.97;4817946;29;20210;-78
2022/10/28 08:52:49;;;;;;;11.23;7.57;;;;;;;24.06;43.35;95964.75;4823597;29;20341;-81
2022/10/28 08:55:20;;;;;;;10.85;7.50;;;;;;;23.90;43.33;95954.56;4822633;29;20206;-79
2022/10/28 08:57:52;;;;;;;10.50;7.07;;;;;;;23.80;43.44;95961.94;4820480;29;20206;-79
2022/10/28 09:00:24;;;;;;;10.18;6.30;;;;;;;23.63;43.87;95951.72;4826352;29;20243;-78
2022/10/28 09:03:15;;;;;;;10.68;6.65;;;;;;;23.52;43.75;95960.84;4830151;29;20207;-78
2022/10/28 09:05:46;;;;;;;11.57;6.75;;;;;;;23.43;44.25;95956.75;4821095;29;20200;-81
2022/10/28 09:08:21;;;;;;;7.70;5.70;;;;;;;23.33;44.18;95953.66;4826725;29;20192;-78
2022/10/28 09:11:03;;;;;;;11.30;6.82;;;;;;;23.22;44.38;95949.72;4815386;29;20202;-78
2022/10/28 09:13:41;;;;;;;11.40;6.50;;;;;;;23.15;44.48;95950.66;4819041;29;20202;-78
2022/10/28 09:16:14;;;;;;;14.65;6.80;;;;;;;23.04;44.57;95944.91;4819798;29;20218;-79
2022/10/28 09:18:51;;;;;;;12.38;6.60;;;;;;;22.98;44.75;95943.06;4822860;29;20207;-79
2022/10/28 09:21:24;;;;;;;10.50;6.10;;;;;;;22.91;44.84;95941.38;4820442;29;20202;-82
2022/10/28 09:23:56;;;;;;;16.15;6.30;;;;;;;22.86;44.86;95935.84;4829946;29;20224;-80
2022/10/28 09:26:41;;;;;;;8.13;6.13;;;;;;;22.79;45.19;95935.78;4899568;29;20235;-80
2022/10/28 09:29:30;;;;;;;8.70;5.90;;;;;;;22.72;44.96;95930.50;4909135;29;20211;-78
2022/10/28 09:32:18;;;;;;;13.02;6.20;;;;;;;22.66;45.06;95918.16;4903155;29;20201;-80
2022/10/28 09:34:49;;;;;;;9.13;6.13;;;;;;;22.64;45.28;95919.34;4909379;29;20201;-78
2022/10/28 09:37:20;;;;;;;12.75;6.80;;;;;;;22.57;45.50;95908.81;4895346;29;20210;-80
2022/10/28 09:39:51;;;;;;;11.00;6.15;;;;;;;22.52;45.43;95905.97;4923861;29;20294;-79
2022/10/28 09:42:23;;;;;;;9.52;6.40;;;;;;;22.54;45.61;95910.03;4916463;29;20196;-81
2022/10/28 09:44:56;;;;;;;7.60;5.35;;;;;;;22.53;45.51;95904.97;4919649;29;20211;-78
2022/10/28 09:47:27;;;;;;;10.77;5.95;;;;;;;22.34;45.60;95871.66;4894154;29;20208;-77
2022/10/28 09:49:58;;;;;;;9.30;6.45;;;;;;;22.50;45.79;95905.34;4895987;29;20217;-81
2022/10/28 09:52:33;;;;;;;10.75;6.07;;;;;;;22.51;45.58;95894.72;4910810;29;20339;-79
2022/10/28 09:55:05;;;;;;;9.38;6.25;;;;;;;22.54;45.67;95886.56;4905681;29;20222;-85
2022/10/28 09:57:32;;;;;;;14.63;5.25;;;;;;;22.56;45.74;95882.94;4903563;29;20206;-78
2022/10/28 09:59:59;;;;;;;6.80;5.78;;;;;;;22.55;45.61;95882.13;4904530;29;20274;-79
2022/10/28 10:02:28;;;;;;;9.10;6.40;;;;;;;22.57;45.82;95876.72;4906133;29;20202;-80
2022/10/28 10:04:56;;;;;;;11.50;5.88;;;;;;;22.24;45.89;95825.03;4907558;29;20283;-81
2022/10/28 10:07:34;;;;;;;10.50;6.35;;;;;;;22.57;45.88;95876.72;4912107;29;20188;-80
2022/10/28 10:10:06;;;;;;;8.57;5.70;;;;;;;22.49;45.96;95865.41;4899692;29;20707;-81
2022/10/28 10:12:33;;;;;;;7.75;5.97;;;;;;;22.39;45.77;95835.41;4912437;29;20196;-79
2022/10/28 10:15:04;;;;;;;10.57;6.63;;;;;;;22.53;45.89;95852.81;4906704;29;20199;-79
2022/10/28 10:17:39;;;;;;;9.82;6.40;;;;;;;22.63;45.80;95874.22;4900702;29;20830;-81
2022/10/28 10:20:08;;;;;;;10.50;6.70;;;;;;;22.65;45.70;95866.19;4908365;29;20691;-79
2022/10/28 10:22:38;;;;;;;10.57;6.18;;;;;;;22.65;45.81;95863.59;4908092;29;20200;-79
2022/10/28 10:25:23;;;;;;;10.13;7.13;;;;;;;22.66;45.70;95863.41;4907052;29;20646;-77
2022/10/28 10:27:51;;;;;;;8.10;5.75;;;;;;;22.67;45.94;95853.81;4899614;29;20283;-79
2022/10/28 10:30:22;;;;;;;13.95;6.60;;;;;;;22.37;45.88;95809.53;4893185;29;20224;-79
2022/10/28 10:32:49;;;;;;;9.65;5.63;;;;;;;22.69;46.03;95851.81;4895225;29;20211;-78
2022/10/28 10:35:21;;;;;;;9.35;6.18;;;;;;;22.70;45.96;95850.81;4894131;29;20686;-83
2022/10/28 10:37:49;;;;;;;9.60;6.95;;;;;;;22.70;45.89;95851.59;4894480;29;20199;-81
2022/10/28 10:40:29;;;;;;;9.80;6.32;;;;;;;22.61;45.65;95829.25;4912154;29;20228;-83
2022/10/28 10:43:14;;;;;;;14.23;6.35;;;;;;;22.65;45.67;95840.13;4909082;29;20200;-82
2022/10/28 10:45:42;;;;;;;8.25;5.38;;;;;;;22.53;45.98;95811.91;4905312;29;20185;-82
2022/10/28 10:48:13;;;;;;;7.63;5.97;;;;;;;22.73;45.96;95845.22;4907457;29;20222;-81
2022/10/28 10:50:42;;;;;;;9.48;5.78;;;;;;;22.74;45.69;95839.00;4904469;29;20223;-81
2022/10/28 10:53:20;;;;;;;7.68;4.78;;;;;;;22.75;45.43;95836.22;4905682;29;20223;-79
2022/10/28 10:55:51;;;;;;;6.22;5.30;;;;;;;22.66;45.71;95824.28;4904882;29;20196;-80
2022/10/28 10:58:21;;;;;;;8.95;5.40;;;;;;;22.77;45.63;95830.81;4910413;29;20207;-79
2022/10/28 11:00:49;;;;;;;11.80;5.40;;;;;;;22.76;45.59;95826.59;4911726;29;20586;-78
2022/10/28 11:03:20;;;;;;;6.68;4.68;;;;;;;22.79;45.56;95818.38;4910445;29;20196;-80
2022/10/28 11:05:49;;;;;;;6.32;4.30;;;;;;;22.81;45.50;95813.81;4904264;29;20209;-79
2022/10/28 11:08:39;;;;;;;5.72;4.55;;;;;;;22.82;45.61;95814.63;4900362;29;20208;-80
2022/10/28 11:11:10;;;;;;;9.77;5.28;;;;;;;22.78;45.52;95798.53;4903978;29;20226;-80
2022/10/28 11:13:37;;;;;;;7.00;4.60;;;;;;;22.86;45.24;95813.25;4899140;29;20207;-79
2022/10/28 11:16:06;;;;;;;7.50;3.80;;;;;;;22.77;45.39;95799.53;4908992;29;20212;-81
2022/10/28 11:18:42;;;;;;;6.93;4.32;;;;;;;22.84;45.16;95804.78;4898600;29;20200;-83
2022/10/28 11:21:22;;;;;;;7.38;4.15;;;;;;;22.82;45.16;95791.13;4905759;29;20207;-83
2022/10/28 11:24:03;;;;;;;7.75;4.13;;;;;;;22.90;45.38;95799.69;4908740;29;20203;-83
2022/10/28 11:26:37;;;;;;;6.43;4.18;;;;;;;22.79;45.59;95776.66;4905061;29;20188;-77
2022/10/28 11:29:09;;;;;;;4.55;3.70;;;;;;;22.90;45.60;95791.03;4898015;29;20197;-79
2022/10/28 11:32:07;;;;;;;6.30;4.63;;;;;;;22.94;45.12;95792.28;4901065;29;20676;-79
2022/10/28 11:35:13;;;;;;;4.55;3.60;;;;;;;22.83;45.09;95777.91;4902212;29;20207;-81
2022/10/28 11:37:51;;;;;;;4.90;3.45;;;;;;;22.93;44.96;95782.84;4852382;29;20194;-81
2022/10/28 11:40:31;;;;;;;4.13;3.50;;;;;;;22.82;45.09;95767.66;4846598;29;20234;-80
2022/10/28 11:43:18;;;;;;;5.32;3.58;;;;;;;22.94;44.85;95784.47;4837258;29;20689;-78
2022/10/28 11:45:53;;;;;;;4.40;3.92;;;;;;;22.94;44.69;95781.84;4834355;29;20205;-78